Flugplatz Gotha-Ost (EDEG)

Hier findest Du alle Informationen zum Flugplatz Gotha-Ost (EDEG).

Informationen für Piloten zum Flugplatz Gotha-Ost

Hier findest Du alle relevanten Informationen, die Du als Pilot benötigst, um Gotha-Ost anzufliegen.

Flugplatz: Gotha-Ost ICAO-Code: EDEG
Frequenz Turm: 122,500 Mhz GAFOR Gebiet: 24
Frequenz Ground: 122,500 Mhz Mogas: nein
Platzrunde: N 1800 ft Landegebühr: -
Platzhöhe: - Sunrise: 07:08 Uhr UTC
Pisten: 08/26 - 470 m x , GRAS Sunset: 15:46 Uhr UTC

Mitglieder, die in Gotha-Ost fliegen

Flugwetter am Flugplatz Gotha-Ost

Die METAR Information stammen aus EDDE (16.13 km entfernt).

METAR Code:
2020/01/11 21:50
EDDE 112150Z 20006KT CAVOK 02/M02 Q1027

Temperatur: 1,2 °C Niederschlag: - Wind: 7,0 kt
Temperatur (min.): -1,1 °C Luftdruck: 1026 hPa Windrichtung: 280 °
Temperatur (max.): 3,3 °C Luftfeuchtigkeit: 94 % Bewölkung: 2/8

Flugschulen am Flugplatz Gotha-Ost

Am Flugplatz Gotha-Ost gibt es eine Flugschule.

Benachbarte Flugplätze und Flugschulen

Es gibt 14 weitere Flugplätze in einem Umkreis von 50 km um den Flugplatz Gotha-Ost.

Jetzt anmelden

Passwort vergessen

Umfrage Archiv

Lasst Ihr Euch bei Überlandflügen von FIS begleiten?

Ja, immer!
43.4 %
Ja, unregelmäßig!
28.7 %
Ja, aber nur selten!
18.9 %
Nein, nie!
9.1 %
Stimmen: 143 | Diskussion
Anzeige: Roland Aircraft
Statistik Alle Mitglieder

Aktuell sind 16 Besucher online.

Anzeige: VFR Sprechfunk Simulator


Anzeige: Pocket FMS